Nea Ionia, Greece
Current Conditions -  °F | °C
As of 11:50 AM on Monday 22 Dec 2014 (Local Time) from LGEL Reporting Station
Few Clouds Few Clouds  
Wind Chill: 52°   Ceiling: Unl
Heat Index: 52°   Visibility: 6mi
Dew Point: 34°   Wind: 12mph
Humidity: 50%   Direction: 350°N
Pressure: 30.42"   Gusts: NA
Location:  38.03°N, 23.75°E
Report Text: LGEL 220850Z 35010KT 9999 FEW025 11/01 Q1030
Loading
Personal Weather Stations






























Interactive Weather Map New forecast layout! Learn more

10-Day Weather Forecast

Advertisements
Track Severe Weather on mobile